createdAt,value
2023-03-19T00:45:55.808Z,100
2023-03-19T01:05:54.099Z,100
2023-03-19T01:21:54.093Z,100
2023-03-19T01:23:54.126Z,100
2023-03-19T01:25:54.102Z,100
2023-03-19T01:26:54.104Z,100
2023-03-19T01:33:54.107Z,100
2023-03-19T01:38:54.104Z,100
2023-03-19T01:39:54.104Z,100
2023-03-19T01:40:54.106Z,100
2023-03-19T01:41:54.107Z,100
2023-03-19T01:44:54.110Z,100
2023-03-19T01:47:54.099Z,100
2023-03-19T01:49:54.108Z,100
2023-03-19T01:58:54.110Z,100
2023-03-19T01:59:54.112Z,100
2023-03-19T02:00:54.108Z,100
2023-03-19T02:01:54.175Z,100
2023-03-19T02:02:54.116Z,100
2023-03-19T02:03:54.116Z,100
2023-03-19T02:04:54.211Z,100
2023-03-19T02:05:54.117Z,100
2023-03-19T02:06:54.119Z,100
2023-03-19T02:07:54.115Z,100
2023-03-19T02:08:54.121Z,100
2023-03-19T02:09:54.100Z,100
2023-03-19T02:10:54.112Z,100
2023-03-19T02:11:54.131Z,100
2023-03-19T02:12:54.175Z,100
2023-03-19T02:13:54.114Z,100
2023-03-19T02:14:54.109Z,100
2023-03-19T02:15:54.148Z,100
2023-03-19T02:16:54.139Z,100
2023-03-19T02:17:54.111Z,100
2023-03-19T02:18:54.113Z,100
2023-03-19T02:19:54.109Z,100
2023-03-19T02:20:54.127Z,100
2023-03-19T02:21:54.112Z,100
2023-03-19T02:22:54.139Z,100
2023-03-19T02:23:54.123Z,100
2023-03-19T02:24:54.115Z,100
2023-03-19T02:25:54.123Z,100
2023-03-19T02:26:54.114Z,100
2023-03-19T02:27:54.143Z,100
2023-03-19T02:28:54.120Z,100
2023-03-19T02:29:54.118Z,100
2023-03-19T02:30:54.107Z,100
2023-03-19T02:31:54.114Z,100
2023-03-19T02:32:54.132Z,100
2023-03-19T02:33:54.120Z,100
2023-03-19T02:34:54.260Z,100
2023-03-19T02:35:54.193Z,100
2023-03-19T02:36:54.113Z,100
2023-03-19T02:37:54.113Z,100
2023-03-19T02:38:54.135Z,100
2023-03-19T02:39:54.112Z,100
2023-03-19T02:40:54.113Z,100
2023-03-19T02:41:54.123Z,100
2023-03-19T02:42:54.120Z,100
2023-03-19T02:43:54.124Z,100
2023-03-19T02:44:54.119Z,100
2023-03-19T02:45:54.118Z,100
2023-03-19T02:46:54.263Z,100
2023-03-19T02:47:54.120Z,100
2023-03-19T02:48:54.120Z,100
2023-03-19T02:49:54.130Z,100
2023-03-19T02:50:54.120Z,100
2023-03-19T02:51:54.131Z,100
2023-03-19T02:52:54.125Z,100
2023-03-19T02:53:54.147Z,100
2023-03-19T02:54:54.128Z,100
2023-03-19T02:55:54.118Z,100
2023-03-19T02:56:54.141Z,100
2023-03-19T02:57:54.124Z,100
2023-03-19T02:58:54.139Z,100
2023-03-19T02:59:54.123Z,100
2023-03-19T03:00:54.194Z,100
2023-03-19T03:01:54.252Z,100
2023-03-19T03:02:54.135Z,100
2023-03-19T03:03:54.124Z,100
2023-03-19T03:04:54.131Z,100
2023-03-19T03:05:54.164Z,100
2023-03-19T03:06:54.132Z,100
2023-03-19T03:08:54.139Z,100
2023-03-19T03:09:54.137Z,100
2023-03-19T03:10:54.200Z,100
2023-03-19T03:11:54.134Z,100
2023-03-19T03:12:54.147Z,100
2023-03-19T03:13:54.150Z,100
2023-03-19T03:14:54.136Z,100
2023-03-19T03:15:54.141Z,100
2023-03-19T03:16:54.132Z,100
2023-03-19T03:17:54.139Z,100
2023-03-19T03:18:54.144Z,100
2023-03-19T03:19:54.146Z,100
2023-03-19T03:20:54.148Z,100
2023-03-19T03:21:54.150Z,100
2023-03-19T03:22:54.170Z,100
2023-03-19T03:23:54.153Z,100
2023-03-19T03:24:54.160Z,100
2023-03-19T03:25:54.136Z,100
2023-03-19T03:26:54.138Z,100
2023-03-19T03:27:54.140Z,100
2023-03-19T03:28:54.135Z,100
2023-03-19T03:29:54.139Z,100
2023-03-19T03:30:54.154Z,100
2023-03-19T03:31:54.208Z,100
2023-03-19T03:32:54.198Z,100
2023-03-19T03:33:54.142Z,100
2023-03-19T03:34:54.141Z,100
2023-03-19T03:35:54.219Z,100
2023-03-19T03:36:54.149Z,100
2023-03-19T03:37:54.141Z,100
2023-03-19T03:38:54.149Z,100
2023-03-19T03:39:54.146Z,100
2023-03-19T03:40:54.151Z,100
2023-03-19T03:41:54.141Z,100
2023-03-19T03:42:54.143Z,100
2023-03-19T03:43:54.155Z,100
2023-03-19T03:44:54.196Z,100
2023-03-19T03:45:54.193Z,100
2023-03-19T03:46:54.153Z,100
2023-03-19T03:47:54.156Z,100
2023-03-19T03:48:54.175Z,100
2023-03-19T03:49:54.146Z,100
2023-03-19T03:50:54.150Z,100
2023-03-19T03:51:54.142Z,100
2023-03-19T03:52:54.154Z,100
2023-03-19T03:53:54.148Z,100
2023-03-19T03:54:54.156Z,100
2023-03-19T03:55:54.183Z,100
2023-03-19T03:56:54.161Z,100
2023-03-19T03:57:54.160Z,100
2023-03-19T03:59:54.151Z,100
2023-03-19T04:00:54.165Z,100
2023-03-19T04:01:54.202Z,100
2023-03-19T04:02:54.201Z,100
2023-03-19T04:03:54.145Z,100
2023-03-19T04:04:54.172Z,100
2023-03-19T04:05:54.150Z,100
2023-03-19T04:06:54.158Z,100
2023-03-19T04:07:54.155Z,100
2023-03-19T04:08:54.153Z,100
2023-03-19T04:09:54.165Z,100
2023-03-19T04:10:54.175Z,100
2023-03-19T04:11:54.156Z,100
2023-03-19T04:12:54.162Z,100
2023-03-19T04:13:54.160Z,100
2023-03-19T04:14:54.161Z,100
2023-03-19T04:15:54.157Z,100
2023-03-19T04:16:54.250Z,100
2023-03-19T04:17:54.167Z,100
2023-03-19T04:18:54.176Z,100
2023-03-19T04:20:54.197Z,100
2023-03-19T04:21:54.196Z,100
2023-03-19T04:22:54.182Z,100
2023-03-19T04:23:54.196Z,100
2023-03-19T04:25:04.494Z,100
2023-03-19T04:27:04.503Z,100
2023-03-19T04:27:54.198Z,100
2023-03-19T04:28:54.165Z,100
2023-03-19T04:29:54.171Z,100
2023-03-19T04:30:54.193Z,100
2023-03-19T04:31:54.174Z,100
2023-03-19T04:32:54.271Z,100
2023-03-19T04:33:54.169Z,100
2023-03-19T04:34:54.161Z,100
2023-03-19T04:35:54.197Z,100
2023-03-19T04:36:54.180Z,100
2023-03-19T04:37:54.172Z,100
2023-03-19T04:38:54.164Z,100
2023-03-19T04:39:54.171Z,100
2023-03-19T04:41:54.162Z,100
2023-03-19T04:42:54.167Z,100
2023-03-19T04:43:54.179Z,100
2023-03-19T04:44:54.176Z,100
2023-03-19T04:45:54.197Z,100
2023-03-19T04:46:54.166Z,100
2023-03-19T04:47:54.172Z,100
2023-03-19T04:48:54.174Z,100
2023-03-19T04:49:54.164Z,100
2023-03-19T04:50:54.172Z,100
2023-03-19T04:51:54.194Z,100
2023-03-19T04:52:54.193Z,100
2023-03-19T04:53:54.166Z,100
2023-03-19T04:54:54.193Z,100
2023-03-19T04:55:54.166Z,100
2023-03-19T04:56:54.175Z,100
2023-03-19T04:57:54.195Z,100
2023-03-19T04:58:54.174Z,100
2023-03-19T04:59:54.176Z,100
2023-03-19T05:00:54.205Z,100
2023-03-19T05:02:54.182Z,100
2023-03-19T05:03:54.219Z,100
2023-03-19T05:04:54.173Z,100
2023-03-19T05:05:54.202Z,100
2023-03-19T05:06:54.173Z,100
2023-03-19T05:07:54.197Z,100
2023-03-19T05:08:54.175Z,100
2023-03-19T05:09:54.421Z,100
2023-03-19T05:10:54.186Z,100
2023-03-19T05:11:54.198Z,100
2023-03-19T05:12:54.189Z,100
2023-03-19T05:13:54.173Z,100
2023-03-19T05:14:54.174Z,100
2023-03-19T05:15:54.284Z,100
2023-03-19T05:16:54.172Z,100
2023-03-19T05:17:54.185Z,100
2023-03-19T05:18:54.181Z,100
2023-03-19T05:19:54.180Z,100
2023-03-19T05:20:54.185Z,100
2023-03-19T05:21:54.191Z,100
2023-03-19T05:22:54.172Z,100
2023-03-19T05:23:54.184Z,100
2023-03-19T05:24:54.197Z,100
2023-03-19T05:25:54.186Z,100
2023-03-19T05:26:54.250Z,100
2023-03-19T05:27:54.185Z,100
2023-03-19T05:28:54.211Z,100
2023-03-19T05:29:54.190Z,100
2023-03-19T05:30:54.202Z,100
2023-03-19T05:32:54.477Z,100
2023-03-19T05:33:54.182Z,100
2023-03-19T05:34:54.190Z,100
2023-03-19T05:35:55.128Z,100
2023-03-19T05:36:54.191Z,100
2023-03-19T05:37:54.195Z,100
2023-03-19T05:38:54.184Z,100
2023-03-19T05:39:54.196Z,100
2023-03-19T05:40:54.194Z,100
2023-03-19T05:41:54.188Z,100
2023-03-19T05:42:54.197Z,100
2023-03-19T05:43:54.193Z,100
2023-03-19T05:44:54.194Z,100
2023-03-19T05:45:54.184Z,100
2023-03-19T05:46:54.190Z,100
2023-03-19T05:47:54.196Z,100
2023-03-19T05:48:54.201Z,100
2023-03-19T05:49:54.206Z,100
2023-03-19T05:50:54.184Z,100
2023-03-19T05:51:54.202Z,100
2023-03-19T05:52:54.197Z,100
2023-03-19T05:53:54.194Z,100
2023-03-19T05:54:54.199Z,100
2023-03-19T05:55:54.193Z,100
2023-03-19T05:56:54.198Z,100
2023-03-19T05:57:54.217Z,100
2023-03-19T05:58:54.213Z,100
2023-03-19T05:59:54.221Z,100
2023-03-19T06:00:54.200Z,100
2023-03-19T06:01:54.227Z,100
2023-03-19T06:02:54.256Z,100
2023-03-19T06:03:54.288Z,100
2023-03-19T06:04:54.192Z,100
2023-03-19T06:05:54.194Z,100
2023-03-19T06:06:54.203Z,100
2023-03-19T06:07:54.196Z,100
2023-03-19T06:08:54.190Z,100
2023-03-19T06:09:54.202Z,100
2023-03-19T06:10:54.193Z,100
2023-03-19T06:11:54.192Z,100
2023-03-19T06:12:54.205Z,100
2023-03-19T06:13:54.201Z,100
2023-03-19T06:14:54.199Z,100
2023-03-19T06:15:54.233Z,100
2023-03-19T06:16:54.211Z,100
2023-03-19T06:17:54.188Z,100
2023-03-19T06:18:54.188Z,100
2023-03-19T06:19:54.188Z,100
2023-03-19T06:20:54.196Z,100
2023-03-19T06:21:54.227Z,100
2023-03-19T06:22:54.205Z,100
2023-03-19T06:23:54.226Z,100
2023-03-19T06:24:54.196Z,100
2023-03-19T06:25:54.198Z,100
2023-03-19T06:26:54.204Z,100
2023-03-19T06:28:54.206Z,100
2023-03-19T06:29:54.208Z,100
2023-03-19T06:30:54.232Z,100
2023-03-19T06:31:56.170Z,100
2023-03-19T06:32:54.264Z,100
2023-03-19T06:33:54.219Z,100
2023-03-19T06:35:54.620Z,100
2023-03-19T06:36:54.214Z,100
2023-03-19T06:37:54.213Z,100
2023-03-19T06:38:54.218Z,100
2023-03-19T06:39:54.221Z,100
2023-03-19T06:40:54.217Z,100
2023-03-19T06:41:54.291Z,100
2023-03-19T06:42:54.209Z,100
2023-03-19T06:43:54.209Z,100
2023-03-19T06:44:54.212Z,100
2023-03-19T06:45:54.317Z,100
2023-03-19T06:46:54.211Z,100
2023-03-19T06:47:54.211Z,100
2023-03-19T06:48:54.219Z,100
2023-03-19T06:49:54.256Z,100
2023-03-19T06:50:54.284Z,100
2023-03-19T06:51:54.214Z,100
2023-03-19T06:52:54.216Z,100
2023-03-19T06:53:54.218Z,100
2023-03-19T06:54:54.214Z,100
2023-03-19T06:56:54.280Z,100
2023-03-19T06:57:54.237Z,100
2023-03-19T06:58:54.221Z,100
2023-03-19T06:59:54.249Z,100
2023-03-19T07:00:54.235Z,100
2023-03-19T07:01:54.249Z,100
2023-03-19T07:02:54.218Z,100
2023-03-19T07:03:54.305Z,100
2023-03-19T07:04:54.224Z,100
2023-03-19T07:05:54.228Z,100
2023-03-19T07:06:54.302Z,100
2023-03-19T07:07:54.219Z,100
2023-03-19T07:08:54.230Z,100
2023-03-19T07:09:54.216Z,100
2023-03-19T07:10:54.225Z,100
2023-03-19T07:11:54.224Z,100
2023-03-19T07:12:54.224Z,100
2023-03-19T07:13:54.226Z,100
2023-03-19T07:14:54.219Z,100
2023-03-19T07:15:54.226Z,100
2023-03-19T07:16:54.225Z,100
2023-03-19T07:17:54.231Z,100
2023-03-19T07:18:54.223Z,100
2023-03-19T07:19:54.230Z,100
2023-03-19T07:20:54.217Z,100
2023-03-19T07:21:54.225Z,100
2023-03-19T07:22:54.239Z,100
2023-03-19T07:23:54.226Z,100
2023-03-19T07:24:54.221Z,100
2023-03-19T07:25:54.240Z,100
2023-03-19T07:26:54.236Z,100
2023-03-19T07:27:56.089Z,100
2023-03-19T07:28:54.225Z,100
2023-03-19T07:29:54.235Z,100
2023-03-19T07:30:54.227Z,100
2023-03-19T07:31:54.244Z,100
2023-03-19T07:32:54.273Z,100
2023-03-19T07:33:54.238Z,100
2023-03-19T07:34:54.223Z,100
2023-03-19T07:35:54.297Z,100
2023-03-19T07:36:54.233Z,100
2023-03-19T07:37:54.232Z,100
2023-03-19T07:38:54.243Z,100
2023-03-19T07:39:54.232Z,100
2023-03-19T07:41:01.923Z,100
2023-03-19T07:41:54.225Z,100
2023-03-19T07:42:54.226Z,100
2023-03-19T07:43:54.252Z,100
2023-03-19T07:44:54.428Z,100
2023-03-19T07:45:54.276Z,100
2023-03-19T07:46:54.227Z,100
2023-03-19T07:47:54.235Z,100
2023-03-19T07:49:54.258Z,100
2023-03-19T07:50:54.322Z,100
2023-03-19T07:51:54.234Z,100
2023-03-19T07:52:54.232Z,100
2023-03-19T07:53:54.239Z,100
2023-03-19T07:54:54.246Z,100
2023-03-19T07:55:54.229Z,100
2023-03-19T07:56:54.295Z,100
2023-03-19T07:57:54.270Z,100
2023-03-19T07:58:54.239Z,100
2023-03-19T07:59:54.236Z,100
2023-03-19T08:00:54.264Z,100
2023-03-19T08:01:54.318Z,100
2023-03-19T08:02:54.235Z,100
2023-03-19T08:03:54.269Z,100
2023-03-19T08:04:54.287Z,100
2023-03-19T08:05:54.233Z,100
2023-03-19T08:06:54.395Z,100
2023-03-19T08:07:54.244Z,100
2023-03-19T08:08:54.276Z,100
2023-03-19T08:09:54.241Z,100
2023-03-19T08:10:54.245Z,100
2023-03-19T08:11:54.238Z,100
2023-03-19T08:12:54.242Z,100
2023-03-19T08:13:54.265Z,100
2023-03-19T08:14:54.236Z,100
2023-03-19T08:15:54.241Z,100
2023-03-19T08:16:54.269Z,100
2023-03-19T08:17:54.246Z,100
2023-03-19T08:18:54.259Z,100
2023-03-19T08:19:54.235Z,100
2023-03-19T08:20:54.234Z,100
2023-03-19T08:21:54.260Z,100
2023-03-19T08:22:54.276Z,100
2023-03-19T08:23:54.243Z,100
2023-03-19T08:24:54.235Z,100
2023-03-19T08:25:54.236Z,100
2023-03-19T08:26:54.238Z,100
2023-03-19T08:27:54.245Z,100
2023-03-19T08:28:54.249Z,100
2023-03-19T08:29:54.247Z,100
2023-03-19T08:30:54.276Z,100
2023-03-19T08:31:54.243Z,100
2023-03-19T08:32:54.441Z,100
2023-03-19T08:33:54.246Z,100
2023-03-19T08:34:54.268Z,100
2023-03-19T08:35:54.266Z,100
2023-03-19T08:36:54.265Z,100
2023-03-19T08:37:54.250Z,100
2023-03-19T08:38:54.250Z,100
2023-03-19T08:39:54.259Z,100
2023-03-19T08:40:54.252Z,100
2023-03-19T08:41:54.261Z,100
2023-03-19T08:42:54.257Z,100
2023-03-19T08:43:54.249Z,100
2023-03-19T08:44:54.248Z,100
2023-03-19T08:45:54.386Z,100
2023-03-19T08:46:54.260Z,100
2023-03-19T08:47:54.246Z,100
2023-03-19T08:48:54.274Z,100
2023-03-19T08:49:54.251Z,100
2023-03-19T08:50:54.242Z,100
2023-03-19T08:52:54.257Z,100
2023-03-19T08:53:54.279Z,100
2023-03-19T08:54:54.261Z,100
2023-03-19T08:55:54.262Z,100
2023-03-19T08:56:54.274Z,100
2023-03-19T08:57:54.265Z,100
2023-03-19T08:58:54.250Z,100
2023-03-19T08:59:54.268Z,100
2023-03-19T09:00:54.260Z,100
2023-03-19T09:01:54.332Z,100
2023-03-19T09:02:54.253Z,100
2023-03-19T09:03:54.258Z,100
2023-03-19T09:04:54.337Z,100
2023-03-19T09:05:54.284Z,100
2023-03-19T09:06:54.257Z,100
2023-03-19T09:07:54.258Z,100
2023-03-19T09:08:54.285Z,100
2023-03-19T09:09:54.258Z,100
2023-03-19T09:10:54.321Z,100
2023-03-19T09:11:54.260Z,100
2023-03-19T09:12:54.255Z,100
2023-03-19T09:13:54.260Z,100
2023-03-19T09:14:54.252Z,100
2023-03-19T09:15:54.302Z,100
2023-03-19T09:16:54.263Z,100
2023-03-19T09:17:54.284Z,100
2023-03-19T09:18:54.257Z,100
2023-03-19T09:19:54.264Z,100
2023-03-19T09:20:54.279Z,100
2023-03-19T09:21:54.268Z,100
2023-03-19T09:22:54.265Z,100
2023-03-19T09:23:54.286Z,100
2023-03-19T09:24:54.278Z,100
2023-03-19T09:25:54.303Z,100
2023-03-19T09:26:54.289Z,100
2023-03-19T09:27:54.271Z,99.6
2023-03-19T09:28:54.271Z,99.6
2023-03-19T09:29:54.269Z,98.6
2023-03-19T09:30:54.350Z,99.7
2023-03-19T09:31:54.265Z,98.5
2023-03-19T09:32:54.369Z,100
2023-03-19T09:33:54.271Z,99.4
2023-03-19T09:34:54.281Z,99
2023-03-19T09:35:54.345Z,98.3
2023-03-19T09:36:54.415Z,96.7
2023-03-19T09:37:54.276Z,97.2
2023-03-19T09:38:54.276Z,97.6
2023-03-19T09:39:54.272Z,98.1
2023-03-19T09:40:54.275Z,97.2
2023-03-19T09:41:54.277Z,96.4
2023-03-19T09:42:54.273Z,97.8
2023-03-19T09:44:54.290Z,98.1
2023-03-19T09:45:54.319Z,97.9
2023-03-19T09:46:54.394Z,98
2023-03-19T09:47:54.278Z,98.3
2023-03-19T09:48:54.283Z,96.7
2023-03-19T09:49:54.276Z,97
2023-03-19T09:50:54.369Z,97.4
2023-03-19T09:51:54.295Z,97.9
2023-03-19T09:53:54.287Z,96.9
2023-03-19T09:54:54.283Z,97
2023-03-19T09:55:54.276Z,95.3
2023-03-19T09:56:54.286Z,95.8
2023-03-19T09:57:54.280Z,95.7
2023-03-19T09:58:54.281Z,96.7
2023-03-19T09:59:54.288Z,94.6
2023-03-19T10:00:54.312Z,96.3
2023-03-19T10:01:54.406Z,96.5
2023-03-19T10:02:54.292Z,95.2
2023-03-19T10:03:54.389Z,95.3
2023-03-19T10:04:54.288Z,96.2
2023-03-19T10:05:54.290Z,96
2023-03-19T10:06:54.287Z,95.9
2023-03-19T10:07:54.327Z,96.6
2023-03-19T10:08:54.295Z,97.2
2023-03-19T10:09:54.288Z,95.9
2023-03-19T10:10:54.284Z,95.6
2023-03-19T10:11:54.287Z,94.2
2023-03-19T10:12:54.351Z,94.3
2023-03-19T10:13:54.290Z,95.1
2023-03-19T10:14:54.292Z,95.8
2023-03-19T10:15:54.378Z,97.8
2023-03-19T10:16:54.284Z,97.3
2023-03-19T10:17:54.293Z,97.8
2023-03-19T10:18:54.704Z,97.2
2023-03-19T10:19:54.293Z,98
2023-03-19T10:20:54.291Z,98.8
2023-03-19T10:21:54.294Z,98.2
2023-03-19T10:22:54.296Z,98.8
2023-03-19T10:23:54.294Z,99.1
2023-03-19T10:24:54.288Z,98.3
2023-03-19T10:25:54.295Z,97.3
2023-03-19T10:26:54.329Z,96.4
2023-03-19T10:27:54.318Z,96.5
2023-03-19T10:29:54.329Z,93.5
2023-03-19T10:31:54.397Z,93.1
2023-03-19T10:32:54.348Z,92.5
2023-03-19T10:33:54.333Z,93.5
2023-03-19T10:34:54.316Z,93.2
2023-03-19T10:36:54.848Z,94
2023-03-19T10:38:04.576Z,93.5
2023-03-19T10:39:04.602Z,93.7
2023-03-19T10:40:04.594Z,93.3
2023-03-19T10:40:54.298Z,93.8
2023-03-19T10:41:54.314Z,94.1
2023-03-19T10:42:54.303Z,93.3
2023-03-19T10:43:54.312Z,93.6
2023-03-19T10:44:54.298Z,93.4
2023-03-19T10:45:54.409Z,93
2023-03-19T10:46:54.302Z,93.6
2023-03-19T10:47:54.301Z,94.2
2023-03-19T10:48:54.305Z,94.5
2023-03-19T10:49:54.300Z,95.4
2023-03-19T10:51:54.309Z,94.6
2023-03-19T10:52:54.304Z,95.2
2023-03-19T10:53:54.318Z,94.2
2023-03-19T10:54:55.287Z,93
2023-03-19T10:55:54.308Z,92.5
2023-03-19T10:56:54.339Z,93.4
2023-03-19T10:57:54.303Z,93.1
2023-03-19T10:58:54.314Z,93.7
2023-03-19T10:59:54.332Z,94.3
2023-03-19T11:00:54.341Z,93.5
2023-03-19T11:01:54.307Z,92.7
2023-03-19T11:02:54.314Z,93.8
2023-03-19T11:03:54.375Z,93.5
2023-03-19T11:04:54.319Z,94.9
2023-03-19T11:05:54.331Z,95.5
2023-03-19T11:06:54.319Z,96.4
2023-03-19T11:07:54.312Z,96.8
2023-03-19T11:08:54.304Z,97.4
2023-03-19T11:09:54.334Z,97.9
2023-03-19T11:10:54.308Z,99.9
2023-03-19T11:11:54.330Z,100
2023-03-19T11:12:54.331Z,100
2023-03-19T11:13:54.313Z,100
2023-03-19T11:14:54.311Z,100
2023-03-19T11:15:54.312Z,100
2023-03-19T11:16:54.563Z,100
2023-03-19T11:17:54.314Z,100
2023-03-19T11:18:54.306Z,100
2023-03-19T11:20:54.325Z,100
2023-03-19T11:21:54.317Z,100
2023-03-19T23:12:54.590Z,100
2023-03-19T23:13:56.566Z,100
2023-03-19T23:14:54.602Z,100
2023-03-19T23:15:54.599Z,100
2023-03-19T23:16:54.670Z,100
2023-03-19T23:18:55.614Z,100
